createdAt,value
2018-04-14T00:00:21.801Z,97.74
2018-04-14T00:01:21.857Z,97.46
2018-04-14T00:02:21.916Z,97.84
2018-04-14T00:03:21.972Z,97.65
2018-04-14T00:04:22.090Z,97.65
2018-04-14T00:05:22.096Z,97.46
2018-04-14T00:06:22.146Z,98.03
2018-04-14T00:07:22.203Z,98.98
2018-04-14T00:08:22.260Z,98.98
2018-04-14T00:09:22.321Z,99.02
2018-04-14T00:10:22.376Z,98.79
2018-04-14T00:11:22.433Z,98.79
2018-04-14T00:12:22.492Z,98.88
2018-04-14T00:13:22.549Z,98.93
2018-04-14T00:14:22.608Z,98.98
2018-04-14T00:15:22.664Z,99.12
2018-04-14T00:16:22.724Z,99.98
2018-04-14T00:17:22.779Z,99.99
2018-04-14T00:18:22.839Z,99.98
2018-04-14T00:19:22.893Z,98.69
2018-04-14T00:20:22.951Z,98.50
2018-04-14T00:21:23.009Z,98.22
2018-04-14T00:22:23.072Z,97.93
2018-04-14T00:23:23.123Z,97.55
2018-04-14T00:24:23.185Z,97.84
2018-04-14T00:25:23.241Z,98.03
2018-04-14T00:26:23.297Z,98.41
2018-04-14T00:27:23.354Z,97.93
2018-04-14T00:28:23.413Z,97.65
2018-04-14T00:29:23.471Z,97.74
2018-04-14T00:30:23.527Z,97.65
2018-04-14T00:31:23.584Z,98.03
2018-04-14T00:32:23.643Z,98.41
2018-04-14T00:33:23.699Z,98.41
2018-04-14T00:34:23.758Z,98.36
2018-04-14T00:35:23.814Z,98.93
2018-04-14T00:36:23.872Z,98.79
2018-04-14T00:37:23.933Z,98.08
2018-04-14T00:38:23.987Z,97.84
2018-04-14T00:39:24.045Z,97.65
2018-04-14T00:40:24.103Z,98.03
2018-04-14T00:41:24.159Z,97.22
2018-04-14T00:42:24.218Z,98.13
2018-04-14T00:43:24.272Z,97.88
2018-04-14T00:44:24.330Z,98.17
2018-04-14T00:45:24.389Z,98.17
2018-04-14T00:46:24.447Z,98.46
2018-04-14T00:47:24.503Z,98.27
2018-04-14T00:48:24.561Z,98.46
2018-04-14T00:49:24.818Z,98.36
2018-04-14T00:50:24.678Z,98.36
2018-04-14T00:51:24.733Z,98.93
2018-04-14T00:52:24.790Z,99.12
2018-04-14T00:53:24.848Z,99.60
2018-04-14T00:54:24.906Z,99.12
2018-04-14T00:55:24.962Z,99.60
2018-04-14T00:56:25.025Z,99.93
2018-04-14T00:57:25.078Z,99.99
2018-04-14T00:58:25.137Z,99.99
2018-04-14T00:59:25.222Z,99.99
2018-04-14T01:00:25.249Z,99.99
2018-04-14T01:01:25.306Z,99.79
2018-04-14T01:02:25.366Z,99.31
2018-04-14T01:03:25.427Z,99.50
2018-04-14T01:04:25.516Z,99.22
2018-04-14T01:05:25.537Z,98.83
2018-04-14T01:06:25.594Z,98.74
2018-04-14T01:07:25.650Z,98.83
2018-04-14T01:08:25.708Z,99.60
2018-04-14T01:09:25.766Z,99.50
2018-04-14T01:10:25.823Z,99.12
2018-04-14T01:11:25.881Z,99.31
2018-04-14T01:12:25.938Z,99.31
2018-04-14T01:13:25.996Z,99.93
2018-04-14T01:14:26.053Z,99.99
2018-04-14T01:15:26.109Z,99.60
2018-04-14T01:16:26.166Z,99.99
2018-04-14T01:17:26.225Z,99.99
2018-04-14T01:18:26.282Z,99.99
2018-04-14T01:19:26.339Z,99.99
2018-04-14T01:20:26.396Z,99.99
2018-04-14T01:21:26.453Z,99.99
2018-04-14T01:22:26.512Z,99.99
2018-04-14T01:23:26.568Z,99.99
2018-04-14T01:24:26.624Z,99.99
2018-04-14T01:25:26.682Z,99.99
2018-04-14T01:26:26.738Z,99.99
2018-04-14T01:27:26.797Z,99.99
2018-04-14T01:28:26.853Z,99.99
2018-04-14T01:29:27.063Z,99.99
2018-04-14T01:30:26.970Z,99.99
2018-04-14T01:31:27.024Z,99.99
2018-04-14T01:32:27.112Z,99.99
2018-04-14T01:33:27.138Z,99.99
2018-04-14T01:34:27.196Z,99.99
2018-04-14T01:35:27.251Z,99.99
2018-04-14T01:36:27.308Z,99.99
2018-04-14T01:37:27.367Z,99.99
2018-04-14T01:38:27.423Z,99.99
2018-04-14T01:39:27.479Z,99.99
2018-04-14T01:40:27.536Z,99.99
2018-04-14T01:41:27.594Z,99.99
2018-04-14T01:42:27.650Z,99.99
2018-04-14T01:43:27.706Z,99.99
2018-04-14T01:44:27.763Z,99.99
2018-04-14T01:45:27.822Z,99.99
2018-04-14T01:46:27.878Z,99.99
2018-04-14T01:47:27.937Z,99.99
2018-04-14T01:48:27.991Z,99.99
2018-04-14T01:49:28.049Z,99.99
2018-04-14T01:50:28.106Z,99.99
2018-04-14T01:51:28.162Z,99.99
2018-04-14T01:52:28.218Z,99.99
2018-04-14T01:53:28.280Z,99.99
2018-04-14T01:54:28.965Z,99.99
2018-04-14T01:55:28.389Z,99.99
2018-04-14T01:56:28.445Z,99.99
2018-04-14T01:57:28.504Z,99.99
2018-04-14T01:58:28.561Z,99.99
2018-04-14T01:59:28.616Z,99.99
2018-04-14T02:00:28.675Z,99.99
2018-04-14T02:01:28.730Z,99.99
2018-04-14T02:02:28.789Z,99.99
2018-04-14T02:03:28.842Z,99.99
2018-04-14T02:04:28.900Z,99.99
2018-04-14T02:05:28.958Z,99.99
2018-04-14T02:06:29.014Z,99.99
2018-04-14T02:07:29.070Z,99.99
2018-04-14T02:08:29.127Z,99.99
2018-04-14T02:09:29.185Z,99.99
2018-04-14T02:10:29.241Z,99.99
2018-04-14T02:11:29.298Z,99.99
2018-04-14T02:12:29.355Z,99.99
2018-04-14T02:13:29.411Z,99.99
2018-04-14T02:14:29.467Z,99.99
2018-04-14T02:15:29.523Z,99.99
2018-04-14T02:16:29.580Z,99.99
2018-04-14T02:17:29.637Z,99.99
2018-04-14T02:18:29.697Z,99.99
2018-04-14T02:19:30.136Z,99.99
2018-04-14T02:20:29.808Z,99.99
2018-04-14T02:21:29.865Z,99.99
2018-04-14T02:22:29.924Z,99.99
2018-04-14T02:23:29.977Z,99.99
2018-04-14T02:24:30.035Z,99.99
2018-04-14T02:25:30.091Z,99.99
2018-04-14T02:26:30.148Z,99.99
2018-04-14T02:27:30.204Z,99.99
2018-04-14T02:28:30.262Z,99.99
2018-04-14T02:29:30.318Z,99.99
2018-04-14T02:30:30.375Z,99.99
2018-04-14T02:31:30.431Z,99.99
2018-04-14T02:32:30.487Z,99.99
2018-04-14T02:33:30.544Z,99.99
2018-04-14T02:34:30.600Z,99.99
2018-04-14T02:35:30.676Z,99.99
2018-04-14T02:36:30.713Z,99.99
2018-04-14T02:37:30.771Z,99.99
2018-04-14T02:38:30.826Z,99.99
2018-04-14T02:39:30.883Z,99.99
2018-04-14T02:40:30.940Z,99.99
2018-04-14T02:41:30.997Z,99.99
2018-04-14T02:42:31.057Z,99.99
2018-04-14T02:43:31.109Z,99.99
2018-04-14T02:44:31.165Z,99.99
2018-04-14T02:45:31.224Z,99.99
2018-04-14T02:46:31.278Z,99.99
2018-04-14T02:47:31.335Z,99.99
2018-04-14T02:48:31.391Z,99.99
2018-04-14T02:49:31.448Z,99.99
2018-04-14T02:50:31.504Z,99.99
2018-04-14T02:51:31.560Z,99.99
2018-04-14T02:52:31.619Z,99.99
2018-04-14T02:53:31.674Z,99.99
2018-04-14T02:54:31.730Z,99.99
2018-04-14T02:55:31.792Z,99.99
2018-04-14T02:56:31.846Z,99.99
2018-04-14T02:57:31.900Z,99.99
2018-04-14T02:58:31.957Z,99.99
2018-04-14T02:59:32.013Z,99.99
2018-04-14T03:00:32.069Z,99.99
2018-04-14T03:01:32.127Z,99.99
2018-04-14T03:02:32.183Z,99.99
2018-04-14T03:03:32.238Z,99.99
2018-04-14T03:04:32.296Z,99.99
2018-04-14T03:05:32.352Z,99.99
2018-04-14T03:06:32.409Z,99.99
2018-04-14T03:07:32.464Z,99.99
2018-04-14T03:08:32.520Z,99.99
2018-04-14T03:09:32.577Z,99.99
2018-04-14T03:10:32.633Z,99.99
2018-04-14T03:11:32.691Z,99.99
2018-04-14T03:12:32.745Z,99.99
2018-04-14T03:13:32.803Z,99.99
2018-04-14T03:14:32.858Z,99.99
2018-04-14T03:15:32.914Z,99.99
2018-04-14T03:16:32.985Z,99.99
2018-04-14T03:17:33.027Z,99.99
2018-04-14T03:18:33.083Z,99.99
2018-04-14T03:19:33.141Z,99.99
2018-04-14T03:20:33.195Z,99.99
2018-04-14T03:21:33.253Z,99.99
2018-04-14T03:22:33.308Z,99.99
2018-04-14T03:23:33.364Z,99.99
2018-04-14T03:24:33.420Z,99.99
2018-04-14T03:25:33.477Z,99.99
2018-04-14T03:26:33.535Z,99.99
2018-04-14T03:27:33.589Z,99.99
2018-04-14T03:28:33.646Z,99.99
2018-04-14T03:29:33.709Z,99.99
2018-04-14T03:30:33.759Z,99.99
2018-04-14T03:31:33.813Z,99.99
2018-04-14T03:32:33.871Z,99.99
2018-04-14T03:33:33.927Z,99.99
2018-04-14T03:34:33.983Z,99.99
2018-04-14T03:35:34.038Z,99.99
2018-04-14T03:36:34.095Z,99.99
2018-04-14T03:37:34.152Z,99.99
2018-04-14T03:38:34.208Z,99.99
2018-04-14T03:39:34.264Z,99.99
2018-04-14T03:40:34.320Z,99.99
2018-04-14T03:41:34.375Z,99.99
2018-04-14T03:42:34.433Z,99.99
2018-04-14T03:43:34.488Z,99.99
2018-04-14T03:44:34.544Z,99.99
2018-04-14T03:45:34.602Z,99.99
2018-04-14T03:46:34.656Z,99.99
2018-04-14T03:47:34.711Z,99.99
2018-04-14T03:48:34.768Z,99.99
2018-04-14T03:49:34.825Z,99.99
2018-04-14T03:50:34.881Z,99.99
2018-04-14T03:51:34.935Z,99.99
2018-04-14T03:52:34.993Z,99.99
2018-04-14T03:53:35.061Z,99.99
2018-04-14T03:54:35.120Z,99.99
2018-04-14T03:55:35.164Z,99.99
2018-04-14T03:56:35.225Z,99.99
2018-04-14T03:57:35.292Z,99.99
2018-04-14T03:58:35.350Z,99.99
2018-04-14T03:59:35.403Z,99.99
2018-04-14T04:00:35.465Z,99.99
2018-04-14T04:01:35.502Z,99.99
2018-04-14T04:02:35.553Z,99.99
2018-04-14T04:03:35.608Z,99.99
2018-04-14T04:04:35.667Z,99.99
2018-04-14T04:05:35.722Z,99.99
2018-04-14T04:06:35.781Z,99.99
2018-04-14T04:07:35.834Z,99.99
2018-04-14T04:08:35.888Z,99.99
2018-04-14T04:09:35.944Z,99.99
2018-04-14T04:10:36.002Z,99.99
2018-04-14T04:11:36.056Z,99.99
2018-04-14T04:12:36.118Z,99.99
2018-04-14T04:13:36.168Z,99.99
2018-04-14T04:14:36.476Z,99.99
2018-04-14T04:15:36.289Z,99.99
2018-04-14T04:16:36.337Z,99.99
2018-04-14T04:17:36.393Z,99.99
2018-04-14T04:18:36.448Z,99.99
2018-04-14T04:19:36.506Z,99.99
2018-04-14T04:20:36.564Z,99.99
2018-04-14T04:21:36.615Z,99.99
2018-04-14T04:22:36.671Z,99.99
2018-04-14T04:23:36.726Z,99.99
2018-04-14T04:24:36.783Z,99.99
2018-04-14T04:25:36.839Z,99.99
2018-04-14T04:26:37.433Z,99.99
2018-04-14T04:27:36.950Z,99.99
2018-04-14T04:28:37.010Z,99.99
2018-04-14T04:29:37.064Z,99.99
2018-04-14T04:30:37.120Z,99.99
2018-04-14T04:31:37.174Z,99.99
2018-04-14T04:32:37.231Z,99.99
2018-04-14T04:33:37.287Z,99.99
2018-04-14T04:34:37.342Z,99.99
2018-04-14T04:35:37.399Z,99.99
2018-04-14T04:36:37.455Z,99.99
2018-04-14T04:37:37.762Z,99.99
2018-04-14T04:38:37.566Z,99.99
2018-04-14T04:39:37.623Z,99.99
2018-04-14T04:40:37.684Z,99.99
2018-04-14T04:41:37.733Z,99.99
2018-04-14T04:42:37.794Z,99.99
2018-04-14T04:43:37.846Z,99.99
2018-04-14T04:44:37.902Z,99.99
2018-04-14T04:45:37.959Z,99.99
2018-04-14T04:46:38.013Z,99.99
2018-04-14T04:47:38.071Z,99.99
2018-04-14T04:48:38.129Z,99.99
2018-04-14T04:49:38.181Z,99.99
2018-04-14T04:50:38.236Z,99.99
2018-04-14T04:51:38.293Z,99.99
2018-04-14T04:52:38.350Z,99.99
2018-04-14T04:53:38.408Z,99.99
2018-04-14T04:54:38.461Z,99.99
2018-04-14T04:55:38.515Z,99.99
2018-04-14T04:56:38.571Z,99.99
2018-04-14T04:57:38.627Z,99.99
2018-04-14T04:58:38.683Z,99.99
2018-04-14T04:59:38.739Z,99.99
2018-04-14T05:00:38.794Z,99.99
2018-04-14T05:01:38.851Z,99.99
2018-04-14T05:02:38.908Z,99.99
2018-04-14T05:03:38.960Z,99.99
2018-04-14T05:04:39.017Z,99.99
2018-04-14T05:05:39.074Z,99.99
2018-04-14T05:06:39.135Z,99.99
2018-04-14T05:07:39.184Z,99.99
2018-04-14T05:08:39.241Z,99.99
2018-04-14T05:09:39.295Z,99.99
2018-04-14T05:10:39.353Z,99.99
2018-04-14T05:11:39.407Z,99.99
2018-04-14T05:12:39.464Z,99.99
2018-04-14T05:13:39.519Z,99.99
2018-04-14T05:14:39.575Z,99.99
2018-04-14T05:15:39.630Z,99.99
2018-04-14T05:16:39.687Z,99.99
2018-04-14T05:17:39.745Z,99.99
2018-04-14T05:18:39.799Z,99.99
2018-04-14T05:19:39.855Z,99.99
2018-04-14T05:20:39.910Z,99.99
2018-04-14T05:21:39.966Z,99.99
2018-04-14T05:22:40.022Z,99.99
2018-04-14T05:23:40.078Z,99.99
2018-04-14T05:24:40.132Z,99.99
2018-04-14T05:25:40.194Z,99.99
2018-04-14T05:26:40.246Z,99.99
2018-04-14T05:27:40.300Z,99.99
2018-04-14T05:28:40.356Z,99.99
2018-04-14T05:29:40.413Z,99.99
2018-04-14T05:30:40.468Z,99.99
2018-04-14T05:31:40.524Z,99.99
2018-04-14T05:32:40.579Z,99.99
2018-04-14T05:33:40.634Z,99.99
2018-04-14T05:34:40.691Z,99.99
2018-04-14T05:35:40.746Z,99.99
2018-04-14T05:36:40.813Z,99.99
2018-04-14T05:37:40.859Z,99.99
2018-04-14T05:38:40.921Z,99.99
2018-04-14T05:39:40.972Z,99.99
2018-04-14T05:40:41.349Z,99.99
2018-04-14T05:41:41.407Z,99.99
2018-04-14T05:42:41.141Z,99.99
2018-04-14T05:43:41.194Z,99.99
2018-04-14T05:44:41.249Z,99.99
2018-04-14T05:45:41.306Z,99.99
2018-04-14T05:46:41.364Z,99.99
2018-04-14T05:47:41.417Z,99.99
2018-04-14T05:48:41.474Z,99.99
2018-04-14T05:49:41.534Z,99.99
2018-04-14T05:50:41.588Z,99.99
2018-04-14T05:51:41.642Z,99.99
2018-04-14T05:52:41.698Z,99.99
2018-04-14T05:53:41.753Z,99.99
2018-04-14T05:54:41.819Z,99.99
2018-04-14T05:55:41.866Z,99.99
2018-04-14T05:56:41.922Z,99.99
2018-04-14T05:57:41.977Z,99.99
2018-04-14T05:58:42.035Z,99.99
2018-04-14T05:59:42.090Z,99.99
2018-04-14T06:00:42.149Z,99.99
2018-04-14T06:01:42.202Z,99.99
2018-04-14T06:02:42.258Z,99.99
2018-04-14T06:03:42.315Z,99.99
2018-04-14T06:04:42.373Z,99.99
2018-04-14T06:05:42.428Z,99.99
2018-04-14T06:06:42.485Z,99.99
2018-04-14T06:07:42.540Z,99.99
2018-04-14T06:08:42.597Z,99.99
2018-04-14T06:09:42.653Z,99.99
2018-04-14T06:10:42.710Z,99.99
2018-04-14T06:11:42.766Z,99.99
2018-04-14T06:12:42.821Z,99.99
2018-04-14T06:13:42.877Z,99.99
2018-04-14T06:14:42.937Z,99.99
2018-04-14T06:15:42.990Z,99.99
2018-04-14T06:16:43.047Z,99.99
2018-04-14T06:17:43.106Z,99.99
2018-04-14T06:18:43.162Z,99.99
2018-04-14T06:19:43.216Z,99.99
2018-04-14T06:20:43.273Z,99.99
2018-04-14T06:21:43.330Z,99.99
2018-04-14T06:22:43.386Z,99.99
2018-04-14T06:23:43.442Z,99.99
2018-04-14T06:24:43.499Z,99.99
2018-04-14T06:25:43.555Z,99.99
2018-04-14T06:26:43.613Z,99.99
2018-04-14T06:27:43.668Z,99.99
2018-04-14T06:28:43.729Z,99.99
2018-04-14T06:29:43.782Z,99.99
2018-04-14T06:30:43.838Z,99.99
2018-04-14T06:31:43.895Z,99.99
2018-04-14T06:32:43.954Z,99.99
2018-04-14T06:33:44.018Z,99.99
2018-04-14T06:34:44.066Z,99.99
2018-04-14T06:35:44.122Z,99.99
2018-04-14T06:36:44.177Z,99.99
2018-04-14T06:37:44.237Z,99.99
2018-04-14T06:38:44.293Z,99.99
2018-04-14T06:39:44.971Z,99.99
2018-04-14T06:40:44.405Z,99.99
2018-04-14T06:41:44.464Z,99.99
2018-04-14T06:42:44.519Z,99.99
2018-04-14T06:43:44.576Z,99.99
2018-04-14T06:44:44.634Z,99.99
2018-04-14T06:45:44.696Z,99.99
2018-04-14T06:46:44.748Z,99.99
2018-04-14T06:47:44.805Z,99.99
2018-04-14T06:48:44.863Z,99.99
2018-04-14T06:49:44.918Z,99.99
2018-04-14T06:50:44.976Z,99.99
2018-04-14T06:51:45.034Z,99.99
2018-04-14T06:52:45.090Z,99.99
2018-04-14T06:53:45.148Z,99.99
2018-04-14T06:54:45.206Z,99.99
2018-04-14T06:55:45.263Z,99.99
2018-04-14T06:56:45.321Z,99.99
2018-04-14T06:57:45.377Z,99.99
2018-04-14T06:58:45.436Z,99.99
2018-04-14T06:59:45.491Z,99.99
2018-04-14T07:00:45.572Z,99.99
2018-04-14T07:01:45.606Z,99.99
2018-04-14T07:02:45.665Z,99.99
2018-04-14T07:03:45.721Z,99.99
2018-04-14T07:04:45.779Z,99.99
2018-04-14T07:05:45.837Z,99.99
2018-04-14T07:06:45.895Z,99.99
2018-04-14T07:07:45.950Z,99.99
2018-04-14T07:08:46.010Z,99.99
2018-04-14T07:09:46.068Z,99.99
2018-04-14T07:10:46.126Z,99.99
2018-04-14T07:11:46.181Z,99.99
2018-04-14T07:12:46.243Z,99.99
2018-04-14T07:13:46.298Z,99.99
2018-04-14T07:14:46.356Z,99.99
2018-04-14T07:15:46.417Z,99.99
2018-04-14T07:16:46.471Z,99.99
2018-04-14T07:17:46.536Z,99.99
2018-04-14T07:18:46.588Z,99.99
2018-04-14T07:19:46.644Z,99.99
2018-04-14T07:20:46.747Z,99.99
2018-04-14T07:21:46.762Z,99.99
2018-04-14T07:22:46.819Z,99.99
2018-04-14T07:23:46.878Z,99.99
2018-04-14T07:24:46.935Z,99.99
2018-04-14T07:25:46.994Z,99.99
2018-04-14T07:26:47.109Z,99.99
2018-04-14T07:27:47.109Z,99.99
2018-04-14T07:28:47.169Z,99.99
2018-04-14T07:29:47.229Z,99.99
2018-04-14T07:30:47.285Z,99.99
2018-04-14T07:31:47.343Z,99.99
2018-04-14T07:32:47.403Z,99.99
2018-04-14T07:33:47.462Z,99.99
2018-04-14T07:34:47.519Z,99.99
2018-04-14T07:35:47.576Z,99.99
2018-04-14T07:36:47.634Z,99.99
2018-04-14T07:37:47.693Z,99.99
2018-04-14T07:38:47.751Z,99.99
2018-04-14T07:39:47.810Z,99.99
2018-04-14T07:40:47.867Z,99.79
2018-04-14T07:41:47.928Z,99.41
2018-04-14T07:42:47.989Z,98.94
2018-04-14T07:43:48.043Z,98.74
2018-04-14T07:44:48.102Z,97.99
2018-04-14T07:45:48.162Z,97.60
2018-04-14T07:46:48.221Z,97.79
2018-04-14T07:47:48.278Z,97.70
2018-04-14T07:48:48.337Z,97.46
2018-04-14T07:49:48.395Z,97.17
2018-04-14T07:50:48.454Z,97.08
2018-04-14T07:51:48.514Z,97.75
2018-04-14T07:52:48.573Z,96.98
2018-04-14T07:53:48.630Z,96.80
2018-04-14T07:54:48.689Z,97.08
2018-04-14T07:55:48.747Z,96.80
2018-04-14T07:56:48.807Z,96.80
2018-04-14T07:57:48.867Z,96.60
2018-04-14T07:58:48.925Z,96.12
2018-04-14T07:59:48.987Z,96.22
2018-04-14T08:00:49.042Z,96.12
2018-04-14T08:01:49.103Z,96.22
2018-04-14T08:02:49.161Z,96.03
2018-04-14T08:03:49.220Z,95.65
2018-04-14T08:04:49.278Z,95.56
2018-04-14T08:05:49.340Z,95.03
2018-04-14T08:06:49.396Z,95.12
2018-04-14T08:07:49.456Z,94.74
2018-04-14T08:08:49.516Z,94.27
2018-04-14T08:09:49.576Z,94.46
2018-04-14T08:10:49.634Z,94.37
2018-04-14T08:11:49.697Z,94.46
2018-04-14T08:12:49.753Z,94.56
2018-04-14T08:13:49.815Z,93.98
2018-04-14T08:14:49.872Z,94.17
2018-04-14T08:15:49.932Z,94.27
2018-04-14T08:16:49.992Z,94.37
2018-04-14T08:17:50.051Z,93.46
2018-04-14T08:18:50.109Z,93.12
2018-04-14T08:19:50.168Z,93.36
2018-04-14T08:20:50.229Z,93.46
2018-04-14T08:21:50.290Z,93.36
2018-04-14T08:22:50.348Z,92.79
2018-04-14T08:23:50.407Z,91.46
2018-04-14T08:24:50.473Z,91.78
2018-04-14T08:25:50.527Z,91.17
2018-04-14T08:26:50.590Z,91.07
2018-04-14T08:27:50.647Z,90.73
2018-04-14T08:28:50.713Z,91.02
2018-04-14T08:29:50.768Z,90.26
2018-04-14T08:30:50.830Z,90.26
2018-04-14T08:31:50.886Z,89.83
2018-04-14T08:32:50.948Z,88.97
2018-04-14T08:33:51.011Z,88.40
2018-04-14T08:34:51.069Z,88.20
2018-04-14T08:35:51.127Z,88.01
2018-04-14T08:36:51.191Z,87.44
2018-04-14T08:37:51.251Z,87.63
2018-04-14T08:38:51.332Z,87.06
2018-04-14T08:39:51.368Z,86.82
2018-04-14T08:40:51.466Z,86.53
2018-04-14T08:41:51.489Z,86.05
2018-04-14T08:42:51.555Z,86.15
2018-04-14T08:43:51.616Z,85.38
2018-04-14T08:44:51.675Z,85.14
2018-04-14T08:45:51.731Z,84.76
2018-04-14T08:46:51.792Z,84.56
2018-04-14T08:47:51.851Z,84.66
2018-04-14T08:48:51.916Z,84.09
2018-04-14T08:49:51.973Z,84.09
2018-04-14T08:50:52.034Z,84.85
2018-04-14T08:51:52.093Z,84.09
2018-04-14T08:52:52.156Z,83.90
2018-04-14T08:53:52.230Z,83.75
2018-04-14T08:54:52.278Z,83.65
2018-04-14T08:55:52.337Z,83.65
2018-04-14T08:56:52.397Z,83.65
2018-04-14T08:57:52.459Z,83.75
2018-04-14T08:58:52.521Z,82.93
2018-04-14T08:59:52.581Z,82.35
2018-04-14T09:00:52.642Z,82.54
2018-04-14T09:01:52.719Z,82.07
2018-04-14T09:02:53.315Z,81.02
2018-04-14T09:03:52.826Z,80.96
2018-04-14T09:04:52.886Z,79.62
2018-04-14T09:05:52.948Z,78.76
2018-04-14T09:06:53.010Z,78.47
2018-04-14T09:07:53.071Z,78.03
2018-04-14T09:08:53.132Z,76.98
2018-04-14T09:09:53.193Z,76.50
2018-04-14T09:10:53.256Z,76.40
2018-04-14T09:11:53.319Z,76.25
2018-04-14T09:12:53.380Z,75.39
2018-04-14T09:13:53.441Z,75.01
2018-04-14T09:14:53.503Z,74.82
2018-04-14T09:15:53.563Z,73.99
2018-04-14T09:16:53.625Z,71.88
2018-04-14T09:17:53.688Z,71.05
2018-04-14T09:18:53.750Z,69.52
2018-04-14T09:19:53.813Z,69.42
2018-04-14T09:20:53.871Z,69.65
2018-04-14T09:21:53.934Z,69.26
2018-04-14T09:22:53.997Z,68.59
2018-04-14T09:23:54.059Z,68.69
2018-04-14T09:24:54.121Z,69.04
2018-04-14T09:25:54.186Z,68.79
2018-04-14T09:26:54.246Z,68.02
2018-04-14T09:27:54.306Z,66.86
2018-04-14T09:28:54.368Z,67.25
2018-04-14T09:29:54.432Z,67.83
2018-04-14T09:30:54.553Z,67.54
2018-04-14T09:31:54.555Z,67.63
2018-04-14T09:32:54.619Z,67.25
2018-04-14T09:33:54.679Z,67.35
2018-04-14T09:34:54.744Z,67.47
2018-04-14T09:35:54.803Z,67.00
2018-04-14T09:36:54.867Z,66.77
2018-04-14T09:37:54.930Z,66.71
2018-04-14T09:38:54.993Z,66.33
2018-04-14T09:39:55.054Z,66.13
2018-04-14T09:40:55.117Z,65.56
2018-04-14T09:41:55.179Z,65.49
2018-04-14T09:42:55.257Z,65.11
2018-04-14T09:43:55.304Z,64.79
2018-04-14T09:44:55.366Z,64.69
2018-04-14T09:45:55.430Z,65.17
2018-04-14T09:46:55.493Z,65.08
2018-04-14T09:47:55.554Z,66.03
2018-04-14T09:48:55.618Z,66.03
2018-04-14T09:49:55.679Z,65.27
2018-04-14T09:50:55.744Z,65.65
2018-04-14T09:51:55.806Z,65.17
2018-04-14T09:52:55.870Z,64.92
2018-04-14T09:53:55.930Z,64.43
2018-04-14T09:54:55.993Z,63.79
2018-04-14T09:55:56.060Z,63.60
2018-04-14T09:56:56.119Z,63.89
2018-04-14T09:57:56.181Z,62.55
2018-04-14T09:58:56.245Z,62.29
2018-04-14T09:59:56.306Z,61.71
2018-04-14T10:00:56.370Z,61.01
2018-04-14T10:01:56.682Z,61.20
2018-04-14T10:02:56.525Z,61.78
2018-04-14T10:03:56.558Z,61.40
2018-04-14T10:04:56.621Z,61.49
2018-04-14T10:05:56.684Z,61.43
2018-04-14T10:06:56.748Z,60.94
2018-04-14T10:07:56.813Z,61.14
2018-04-14T10:08:56.874Z,61.14
2018-04-14T10:09:56.939Z,60.46
2018-04-14T10:10:57.001Z,59.79
2018-04-14T10:11:57.084Z,59.44
2018-04-14T10:12:57.126Z,58.95
2018-04-14T10:13:57.189Z,58.76
2018-04-14T10:14:57.295Z,58.86
2018-04-14T10:15:57.320Z,58.95
2018-04-14T10:16:57.380Z,58.37
2018-04-14T10:17:57.444Z,58.50
2018-04-14T10:18:57.511Z,57.92
2018-04-14T10:19:57.572Z,58.22
2018-04-14T10:20:57.635Z,57.64
2018-04-14T10:21:57.697Z,58.12
2018-04-14T10:22:57.760Z,58.31
2018-04-14T10:23:57.823Z,58.02
2018-04-14T10:24:57.886Z,57.83
2018-04-14T10:25:57.952Z,57.54
2018-04-14T10:26:58.015Z,57.64
2018-04-14T10:27:58.079Z,57.54
2018-04-14T10:28:58.143Z,56.48
2018-04-14T10:29:58.206Z,56.51
2018-04-14T10:30:58.269Z,56.51
2018-04-14T10:31:58.333Z,55.71
2018-04-14T10:32:58.397Z,55.81
2018-04-14T10:33:58.462Z,56.00
2018-04-14T10:34:58.526Z,56.38
2018-04-14T10:35:58.590Z,55.65
2018-04-14T10:36:58.655Z,55.83
2018-04-14T10:37:58.860Z,55.19
2018-04-14T10:38:58.785Z,54.42
2018-04-14T10:39:58.850Z,53.96
2018-04-14T10:40:58.916Z,53.00
2018-04-14T10:41:58.981Z,52.42
2018-04-14T10:42:59.056Z,53.27
2018-04-14T10:43:59.367Z,53.36
2018-04-14T10:44:59.181Z,51.94
2018-04-14T10:45:59.250Z,51.56
2018-04-14T10:46:59.317Z,51.58
2018-04-14T10:47:59.385Z,50.26
2018-04-14T10:48:59.458Z,49.22
2018-04-14T10:49:59.522Z,46.92
2018-04-14T10:50:59.592Z,45.89
2018-04-14T10:51:59.661Z,45.40
2018-04-14T10:52:59.729Z,44.75
2018-04-14T10:53:59.799Z,45.76
2018-04-14T10:54:59.869Z,46.25
2018-04-14T10:55:59.940Z,46.37
2018-04-14T10:57:00.007Z,45.59
2018-04-14T10:58:00.078Z,45.33
2018-04-14T10:59:00.152Z,44.31
2018-04-14T11:00:00.218Z,42.40
2018-04-14T11:01:00.289Z,42.10
2018-04-14T11:02:00.360Z,42.30
2018-04-14T11:03:00.431Z,41.45
2018-04-14T11:04:00.502Z,42.00
2018-04-14T11:05:00.575Z,42.86
2018-04-14T11:06:00.649Z,41.91
2018-04-14T11:07:00.718Z,42.16
2018-04-14T11:08:00.788Z,41.99
2018-04-14T11:09:00.861Z,41.11
2018-04-14T11:10:00.933Z,39.47
2018-04-14T11:11:01.012Z,39.86
2018-04-14T11:12:01.328Z,39.18
2018-04-14T11:13:01.151Z,39.51
2018-04-14T11:14:01.223Z,39.18
2018-04-14T11:15:01.295Z,39.59
2018-04-14T11:16:01.367Z,39.01
2018-04-14T11:17:01.439Z,38.02
2018-04-14T11:18:01.512Z,39.28
2018-04-14T11:19:01.585Z,38.62
2018-04-14T11:20:01.657Z,37.92
2018-04-14T11:21:01.731Z,38.25
2018-04-14T11:22:01.805Z,37.98
2018-04-14T11:23:01.878Z,39.29
2018-04-14T11:24:01.950Z,39.28
2018-04-14T11:25:02.025Z,40.15
2018-04-14T11:26:02.101Z,41.35
2018-04-14T11:27:02.168Z,41.83
2018-04-14T11:28:02.247Z,40.61
2018-04-14T11:29:02.314Z,39.49
2018-04-14T11:30:02.389Z,38.45
2018-04-14T11:31:02.462Z,37.55
2018-04-14T11:32:02.532Z,39.18
2018-04-14T11:33:02.607Z,39.39
2018-04-14T11:34:02.681Z,38.45
2018-04-14T11:35:02.752Z,37.30
2018-04-14T11:36:02.824Z,36.82
2018-04-14T11:37:02.899Z,36.83
2018-04-14T11:38:02.970Z,36.36
2018-04-14T11:39:03.045Z,35.61
2018-04-14T11:40:03.119Z,35.11
2018-04-14T11:41:03.190Z,34.41
2018-04-14T11:42:03.264Z,35.35
2018-04-14T11:43:03.340Z,35.80
2018-04-14T11:44:03.409Z,36.94
2018-04-14T11:45:03.482Z,37.62
2018-04-14T11:46:03.554Z,37.54
2018-04-14T11:47:03.628Z,37.65
2018-04-14T11:48:03.701Z,36.30
2018-04-14T11:49:03.774Z,36.10
2018-04-14T11:50:03.847Z,35.83
2018-04-14T11:51:03.920Z,36.32
2018-04-14T11:52:03.991Z,35.19
2018-04-14T11:53:04.064Z,34.39
2018-04-14T11:54:04.138Z,34.73
2018-04-14T11:55:04.211Z,35.42
2018-04-14T11:56:04.282Z,37.05
2018-04-14T11:57:04.606Z,37.15
2018-04-14T11:58:04.430Z,38.29
2018-04-14T11:59:04.501Z,38.02
2018-04-14T12:00:04.573Z,36.80
2018-04-14T12:01:04.647Z,35.17
2018-04-14T12:02:04.721Z,34.99
2018-04-14T12:03:04.793Z,35.02
2018-04-14T12:04:04.865Z,36.28
2018-04-14T12:05:04.939Z,35.27
2018-04-14T12:06:05.013Z,34.12
2018-04-14T12:07:05.085Z,31.53
2018-04-14T12:08:05.157Z,32.18
2018-04-14T12:09:05.229Z,32.67
2018-04-14T12:10:05.303Z,32.73
2018-04-14T12:11:05.377Z,35.28
2018-04-14T12:12:05.449Z,35.52
2018-04-14T12:13:05.520Z,34.19
2018-04-14T12:14:05.597Z,34.07
2018-04-14T12:15:05.670Z,34.11
2018-04-14T12:16:05.743Z,32.67
2018-04-14T12:17:05.820Z,33.42
2018-04-14T12:18:05.884Z,33.60
2018-04-14T12:19:05.962Z,33.14
2018-04-14T12:20:06.035Z,33.42
2018-04-14T12:21:06.107Z,32.78
2018-04-14T12:22:06.178Z,31.53
2018-04-14T12:23:06.250Z,32.00
2018-04-14T12:24:06.320Z,31.53
2018-04-14T12:25:06.395Z,32.10
2018-04-14T12:26:06.470Z,32.47
2018-04-14T12:27:06.541Z,32.76
2018-04-14T12:28:06.612Z,32.97
2018-04-14T12:29:06.686Z,33.36
2018-04-14T12:30:06.758Z,33.34
2018-04-14T12:31:06.833Z,33.42
2018-04-14T12:32:06.905Z,33.14
2018-04-14T12:33:06.978Z,33.14
2018-04-14T12:34:07.051Z,34.34
2018-04-14T12:35:07.124Z,34.71
2018-04-14T12:36:07.197Z,35.78
2018-04-14T12:37:07.270Z,36.57
2018-04-14T12:38:07.343Z,38.02
2018-04-14T12:39:07.416Z,38.12
2018-04-14T12:40:07.487Z,37.37
2018-04-14T12:41:07.558Z,36.16
2018-04-14T12:42:07.631Z,35.76
2018-04-14T12:43:07.703Z,35.21
2018-04-14T12:44:07.773Z,33.97
2018-04-14T12:45:07.844Z,32.84
2018-04-14T12:46:07.913Z,33.14
2018-04-14T12:47:07.986Z,32.10
2018-04-14T12:48:08.056Z,33.31
2018-04-14T12:49:08.128Z,33.52
2018-04-14T12:50:08.199Z,32.54
2018-04-14T12:51:08.270Z,33.67
2018-04-14T12:52:08.343Z,33.22
2018-04-14T12:53:08.666Z,32.84